Terminal Aerodrome Forecast
Issued by NWS

Home | Current Version | Previous Version | Text Only | Print | Product List | Glossary On
Versions: 1 2 3 4 5 6 7 8 9 10 11 12 13
000
FTPQ31 PGUM 242326
TAFGSN
TAF
PGSN 242326Z 2500/2524 10015KT P6SM VCSH SCT015 SCT030=

USA.gov is the U.S. government's official web portal to all federal, state and local government web resources and services.